Time;durP1;ratioP1;P1;durP2;ratioP2;P2;SDS_P1;SDS_P2;PMS_P1;PMS_P2;Temp;Humidity;BMP_temperature;BMP_pressure;BME280_temperature;BME280_humidity;BME280_pressure;Samples;Min_cycle;Max_cycle;Signal;HPM_P1;HPM_P2
2021/05/27 00:01:02;;;;;;;1999.90;999.90;;;11.00;99.90;;;;;;5035173;28;20173;-48
2021/05/27 00:03:29;;;;;;;1999.90;999.90;;;11.10;99.90;;;;;;5035138;28;20640;-48
2021/05/27 00:05:55;;;;;;;1999.90;999.90;;;11.10;99.90;;;;;;5035143;28;20162;-49
2021/05/27 00:08:22;;;;;;;1999.90;999.90;;;11.10;99.90;;;;;;5035032;28;20264;-48
2021/05/27 00:10:49;;;;;;;1999.90;999.90;;;11.00;99.90;;;;;;5034992;28;20265;-47
2021/05/27 00:13:16;;;;;;;1999.90;999.90;;;11.00;99.90;;;;;;5034575;28;20182;-48
2021/05/27 00:15:43;;;;;;;1999.90;999.90;;;11.00;99.90;;;;;;5034790;28;20228;-48
2021/05/27 00:18:10;;;;;;;1999.90;999.90;;;11.00;99.90;;;;;;5034773;28;20268;-49
2021/05/27 00:20:37;;;;;;;1999.90;999.90;;;10.90;99.90;;;;;;5034743;28;20267;-47
2021/05/27 00:23:04;;;;;;;1999.90;999.90;;;11.00;99.90;;;;;;5034770;28;20188;-48
2021/05/27 00:25:31;;;;;;;1999.90;999.90;;;10.90;99.90;;;;;;5034661;28;20652;-48
2021/05/27 00:27:58;;;;;;;1999.90;999.90;;;11.00;99.90;;;;;;5034616;28;20178;-49
2021/05/27 00:30:26;;;;;;;1999.90;999.90;;;11.00;99.90;;;;;;5034426;28;20305;-45
2021/05/27 00:32:54;;;;;;;1999.90;999.90;;;11.00;99.90;;;;;;5034547;28;20269;-48
2021/05/27 00:35:21;;;;;;;1999.90;999.90;;;10.90;99.90;;;;;;5034526;28;20225;-46
2021/05/27 00:37:47;;;;;;;1999.90;999.90;;;10.90;99.90;;;;;;5034359;28;20184;-46
2021/05/27 00:40:16;;;;;;;1999.90;999.90;;;10.80;99.90;;;;;;5034270;28;20249;-48
2021/05/27 00:42:44;;;;;;;1999.90;999.90;;;10.70;99.90;;;;;;5034361;28;20209;-45
2021/05/27 00:45:14;;;;;;;1999.90;999.90;;;10.60;99.90;;;;;;5034221;28;20663;-49
2021/05/27 00:47:41;;;;;;;1999.90;999.90;;;10.60;99.90;;;;;;5034265;28;20194;-50
2021/05/27 00:50:20;;;;;;;1999.90;999.90;;;10.60;99.90;;;;;;5034404;28;20192;-48
2021/05/27 00:52:51;;;;;;;1999.90;999.90;;;10.40;99.90;;;;;;5034459;28;20496;-48
2021/05/27 00:55:21;;;;;;;1999.90;999.90;;;10.30;99.90;;;;;;5034360;28;20184;-48
2021/05/27 00:57:48;;;;;;;1999.90;999.90;;;10.30;99.90;;;;;;5034263;28;20189;-49
2021/05/27 01:00:18;;;;;;;1999.90;999.90;;;10.20;99.90;;;;;;5034169;28;20209;-49
2021/05/27 01:02:45;;;;;;;1999.90;999.90;;;10.20;99.90;;;;;;5034252;28;20174;-48
2021/05/27 01:05:14;;;;;;;1999.90;999.90;;;10.20;99.90;;;;;;5034117;28;20182;-47
2021/05/27 01:07:41;;;;;;;1999.90;999.90;;;10.20;99.90;;;;;;5034079;28;20169;-49
2021/05/27 01:10:10;;;;;;;1999.90;999.90;;;10.40;99.90;;;;;;5034112;28;20651;-48
2021/05/27 01:12:37;;;;;;;1999.90;999.90;;;10.40;99.90;;;;;;5033891;28;20201;-48
2021/05/27 01:17:59;;;;;;;1999.90;999.90;;;10.50;99.90;;;;;;5033925;28;20249;-48
2021/05/27 01:20:27;;;;;;;1999.90;999.90;;;10.50;99.90;;;;;;5033648;28;20202;-51
2021/05/27 01:22:55;;;;;;;1999.90;999.90;;;10.60;99.90;;;;;;5033462;28;20178;-52
2021/05/27 01:25:22;;;;;;;1999.90;999.90;;;10.60;99.90;;;;;;5032931;28;20170;-49
2021/05/27 01:27:49;;;;;;;1999.90;999.90;;;10.60;99.90;;;;;;5033384;28;20169;-52
2021/05/27 01:30:17;;;;;;;1999.90;999.90;;;10.60;99.90;;;;;;5033329;28;20221;-49
2021/05/27 01:32:44;;;;;;;1999.90;999.90;;;10.60;99.90;;;;;;5033620;28;20578;-50
2021/05/27 01:35:19;;;;;;;1999.90;999.90;;;10.70;99.90;;;;;;5033472;28;20639;-49
2021/05/27 01:37:46;;;;;;;1999.90;999.90;;;10.70;99.90;;;;;;5033419;28;20158;-51
2021/05/27 01:40:16;;;;;;;1999.90;999.90;;;10.80;99.90;;;;;;5033152;28;20208;-49
2021/05/27 01:42:43;;;;;;;1999.90;999.90;;;10.90;99.90;;;;;;5033359;28;20173;-53
2021/05/27 01:45:11;;;;;;;1999.90;999.90;;;10.90;99.90;;;;;;5031864;28;20534;-49
2021/05/27 01:47:38;;;;;;;1999.90;999.90;;;10.90;99.90;;;;;;5033291;28;20162;-48
2021/05/27 01:50:07;;;;;;;1999.90;999.90;;;10.90;99.90;;;;;;5033139;28;20177;-45
2021/05/27 01:52:34;;;;;;;1999.90;999.90;;;10.90;99.90;;;;;;5032008;28;20223;-49
2021/05/27 01:55:01;;;;;;;1999.90;999.90;;;11.00;99.90;;;;;;5033205;28;20216;-46
2021/05/27 01:57:28;;;;;;;1999.90;999.90;;;11.00;99.90;;;;;;5033040;28;20170;-48
2021/05/27 01:59:54;;;;;;;1999.90;999.90;;;11.00;99.90;;;;;;5033037;28;20604;-48
2021/05/27 02:02:21;;;;;;;1999.90;999.90;;;10.90;99.90;;;;;;5032993;28;20191;-48
2021/05/27 02:04:48;;;;;;;1999.90;999.90;;;10.80;99.90;;;;;;5033020;28;20166;-46
2021/05/27 02:07:16;;;;;;;1999.90;999.90;;;10.80;99.90;;;;;;5032926;28;20162;-48
2021/05/27 02:09:43;;;;;;;1999.90;999.90;;;10.80;99.90;;;;;;5032778;28;20261;-47
2021/05/27 02:12:09;;;;;;;1999.90;999.90;;;10.70;99.90;;;;;;5032777;28;20166;-48
2021/05/27 02:14:36;;;;;;;1999.90;999.90;;;10.70;99.90;;;;;;5032848;28;20176;-45
2021/05/27 02:17:03;;;;;;;1999.90;999.90;;;10.70;99.90;;;;;;5032885;28;20170;-48
2021/05/27 02:19:30;;;;;;;1999.90;999.90;;;10.70;99.90;;;;;;5032750;28;20593;-46
2021/05/27 02:21:57;;;;;;;1999.90;999.90;;;10.60;99.90;;;;;;5032728;28;20174;-45
2021/05/27 02:24:24;;;;;;;1999.90;999.90;;;10.50;99.90;;;;;;5032744;28;20173;-47
2021/05/27 02:26:50;;;;;;;1999.90;999.90;;;10.50;99.90;;;;;;5032719;28;20672;-49
2021/05/27 02:29:17;;;;;;;1999.90;999.90;;;10.40;99.90;;;;;;5032479;28;20217;-47
2021/05/27 02:31:44;;;;;;;1999.90;999.90;;;10.40;99.90;;;;;;5032643;28;20197;-48
2021/05/27 02:34:11;;;;;;;1999.90;999.90;;;10.50;99.90;;;;;;5032693;28;20543;-52
2021/05/27 02:36:38;;;;;;;1999.90;999.90;;;10.60;99.90;;;;;;5036119;28;20201;-48
2021/05/27 02:39:06;;;;;;;1999.90;999.90;;;10.50;99.90;;;;;;5036732;28;20700;-49
2021/05/27 02:41:33;;;;;;;1999.90;999.90;;;10.50;99.90;;;;;;5036865;28;20173;-50
2021/05/27 02:44:00;;;;;;;1999.90;999.90;;;10.50;99.90;;;;;;5036628;28;20170;-50
2021/05/27 02:46:27;;;;;;;1999.90;999.90;;;10.40;99.90;;;;;;5036526;28;20177;-49
2021/05/27 02:48:54;;;;;;;1999.90;999.90;;;10.40;99.90;;;;;;5036561;28;20181;-50
2021/05/27 02:51:21;;;;;;;1999.90;999.90;;;10.40;99.90;;;;;;5036579;28;20174;-50
2021/05/27 02:53:48;;;;;;;1999.90;999.90;;;10.40;99.90;;;;;;5036379;28;20232;-49
2021/05/27 02:56:15;;;;;;;1999.90;999.90;;;10.40;99.90;;;;;;5036305;28;20640;-49
2021/05/27 02:58:42;;;;;;;1999.90;999.90;;;10.40;99.90;;;;;;5036155;28;20198;-49
2021/05/27 03:01:09;;;;;;;1999.90;999.90;;;10.40;99.90;;;;;;5036430;28;20178;-46
2021/05/27 03:03:35;;;;;;;1999.90;999.90;;;10.30;99.90;;;;;;5036730;28;20169;-50
2021/05/27 03:06:03;;;;;;;1999.90;999.90;;;10.30;99.90;;;;;;5036353;28;20237;-49
2021/05/27 03:08:29;;;;;;;1999.90;999.90;;;10.20;99.90;;;;;;5036204;28;20173;-49
2021/05/27 03:10:57;;;;;;;1999.90;999.90;;;10.10;99.90;;;;;;5036231;28;20169;-49
2021/05/27 03:13:24;;;;;;;1999.90;999.90;;;10.10;99.90;;;;;;5036141;28;20527;-47
2021/05/27 03:15:51;;;;;;;1999.90;999.90;;;10.10;99.90;;;;;;5036173;28;20260;-50
2021/05/27 03:18:18;;;;;;;1999.90;999.90;;;10.20;99.90;;;;;;5036095;28;20170;-49
2021/05/27 03:20:45;;;;;;;1999.90;999.90;;;10.20;99.90;;;;;;5035860;28;20244;-49
2021/05/27 03:23:13;;;;;;;1999.90;999.90;;;10.30;99.90;;;;;;5035993;28;20174;-50
2021/05/27 03:25:41;;;;;;;1999.90;999.90;;;10.40;99.90;;;;;;5035848;28;20165;-50
2021/05/27 03:28:08;;;;;;;1999.90;999.90;;;10.30;99.90;;;;;;5035809;28;20173;-49
2021/05/27 03:30:34;;;;;;;1999.90;999.90;;;10.30;99.90;;;;;;5035838;28;20257;-51
2021/05/27 03:33:01;;;;;;;1999.90;999.90;;;10.30;99.90;;;;;;5035752;28;20174;-50
2021/05/27 03:35:28;;;;;;;1999.90;999.90;;;10.30;99.90;;;;;;5035779;28;20189;-51
2021/05/27 03:37:55;;;;;;;1999.90;999.90;;;10.30;99.90;;;;;;5035629;28;20174;-51
2021/05/27 03:40:22;;;;;;;1999.90;999.90;;;10.30;99.90;;;;;;5035666;28;20197;-49
2021/05/27 03:42:52;;;;;;;1999.90;999.90;;;10.40;99.90;;;;;;5035588;28;20178;-48
2021/05/27 03:45:25;;;;;;;1999.90;999.90;;;10.40;99.90;;;;;;5035460;28;20278;-48
2021/05/27 03:47:52;;;;;;;1999.90;999.90;;;10.40;99.90;;;;;;5034956;28;20182;-50
2021/05/27 03:50:22;;;;;;;1999.90;999.90;;;10.30;99.90;;;;;;5035507;28;20170;-47
2021/05/27 03:52:49;;;;;;;1999.90;999.90;;;10.30;99.90;;;;;;5035370;28;20169;-51
2021/05/27 03:55:18;;;;;;;1999.90;999.90;;;10.30;99.90;;;;;;5035252;28;20196;-49
2021/05/27 03:57:46;;;;;;;1999.90;999.90;;;10.30;99.90;;;;;;5035388;28;20766;-46
2021/05/27 04:03:03;;;;;;;1999.90;999.90;;;10.50;99.90;;;;;;5035526;28;20181;-48
2021/05/27 04:08:15;;;;;;;1999.90;999.90;;;10.50;99.90;;;;;;5035439;28;20181;-46
2021/05/27 04:10:42;;;;;;;1999.90;999.90;;;10.40;99.90;;;;;;5035394;28;20217;-48
2021/05/27 04:13:09;;;;;;;1999.90;999.90;;;10.40;99.90;;;;;;5035193;28;20185;-49
2021/05/27 04:15:38;;;;;;;1999.90;999.90;;;10.30;99.90;;;;;;5035089;28;20169;-48
2021/05/27 04:18:16;;;;;;;1999.90;999.90;;;10.30;99.90;;;;;;5035106;28;20193;-49
2021/05/27 04:20:47;;;;;;;1999.90;999.90;;;10.30;99.90;;;;;;5035024;28;20201;-48
2021/05/27 04:23:33;;;;;;;1999.90;999.90;;;10.20;99.90;;;;;;5035065;28;20177;-48
2021/05/27 04:26:05;;;;;;;1999.90;999.90;;;10.20;99.90;;;;;;5034745;28;20162;-46
2021/05/27 04:28:33;;;;;;;1999.90;999.90;;;10.20;99.90;;;;;;5034722;28;20248;-48
2021/05/27 04:31:09;;;;;;;1999.90;999.90;;;10.20;99.90;;;;;;5034841;28;20196;-46
2021/05/27 04:33:46;;;;;;;1999.90;999.90;;;10.20;99.90;;;;;;5034774;28;20563;-46
2021/05/27 04:36:14;;;;;;;1999.90;999.90;;;10.10;99.90;;;;;;5034800;28;20223;-52
2021/05/27 04:38:43;;;;;;;1999.90;999.90;;;10.10;99.90;;;;;;5034641;28;20166;-48
2021/05/27 04:41:10;;;;;;;1999.90;999.90;;;10.00;99.90;;;;;;5034622;28;20172;-47
2021/05/27 04:43:40;;;;;;;1999.90;999.90;;;10.00;99.90;;;;;;5034667;28;20170;-48
2021/05/27 04:46:08;;;;;;;1999.90;999.90;;;10.00;99.90;;;;;;5034495;28;20177;-48
2021/05/27 04:48:36;;;;;;;1999.90;999.90;;;10.00;99.90;;;;;;5034524;28;20174;-46
2021/05/27 04:51:04;;;;;;;1999.90;999.90;;;10.00;99.90;;;;;;5034334;28;20199;-47
2021/05/27 04:53:31;;;;;;;1999.90;999.90;;;10.00;99.90;;;;;;5034443;28;20173;-48
2021/05/27 04:55:58;;;;;;;1999.90;999.90;;;10.00;99.90;;;;;;5034420;28;20168;-48
2021/05/27 04:58:25;;;;;;;1999.90;999.90;;;9.90;99.90;;;;;;5032086;28;20174;-50
2021/05/27 05:00:52;;;;;;;1999.90;999.90;;;9.90;99.90;;;;;;5034251;28;20218;-49
2021/05/27 05:03:19;;;;;;;1999.90;999.90;;;9.90;99.90;;;;;;5034290;28;20185;-45
2021/05/27 05:05:46;;;;;;;1999.90;999.90;;;9.80;99.90;;;;;;5034365;28;20690;-48
2021/05/27 05:08:13;;;;;;;1999.90;999.90;;;9.90;99.90;;;;;;5034138;28;20159;-49
2021/05/27 05:10:43;;;;;;;1999.90;999.90;;;9.90;99.90;;;;;;5033832;28;20181;-48
2021/05/27 05:13:10;;;;;;;1999.90;999.90;;;9.90;99.90;;;;;;5033700;28;20178;-47
2021/05/27 05:15:41;;;;;;;1999.90;999.90;;;10.00;99.90;;;;;;5033770;28;20178;-49
2021/05/27 05:18:10;;;;;;;1999.90;999.90;;;9.90;99.90;;;;;;5033916;28;20166;-47
2021/05/27 05:20:48;;;;;;;1999.90;999.90;;;9.90;99.90;;;;;;5033548;28;20288;-49
2021/05/27 05:23:15;;;;;;;1999.90;999.90;;;10.00;99.90;;;;;;5033726;28;20161;-49
2021/05/27 05:25:42;;;;;;;1999.90;999.90;;;9.90;99.90;;;;;;5033404;28;20204;-51
2021/05/27 05:28:14;;;;;;;1999.90;999.90;;;9.80;99.90;;;;;;5032997;28;20174;-48
2021/05/27 05:30:41;;;;;;;1999.90;999.90;;;9.70;99.90;;;;;;5033170;28;20565;-46
2021/05/27 05:33:09;;;;;;;1999.90;999.90;;;9.70;99.90;;;;;;5033169;28;20236;-47
2021/05/27 05:35:36;;;;;;;1999.90;999.90;;;9.80;99.90;;;;;;5032964;28;20223;-49
2021/05/27 05:38:03;;;;;;;1999.90;999.90;;;9.70;99.90;;;;;;5032850;28;20170;-50
2021/05/27 05:40:31;;;;;;;1999.90;999.90;;;9.70;99.90;;;;;;5032882;28;20212;-47
2021/05/27 05:42:58;;;;;;;1999.90;999.90;;;9.70;99.90;;;;;;5032656;28;20166;-49
2021/05/27 05:45:26;;;;;;;1999.90;999.90;;;9.80;99.90;;;;;;5032814;28;20177;-48
2021/05/27 05:47:54;;;;;;;1999.90;999.90;;;9.80;99.90;;;;;;5032653;28;20177;-46
2021/05/27 05:53:08;;;;;;;1999.90;999.90;;;9.90;99.90;;;;;;5032837;28;20212;-46
2021/05/27 05:55:36;;;;;;;1999.90;999.90;;;9.90;99.90;;;;;;5032535;28;20177;-50
2021/05/27 05:58:03;;;;;;;1999.90;999.90;;;9.90;99.90;;;;;;5032726;28;20239;-48
2021/05/27 06:00:31;;;;;;;1999.90;999.90;;;9.90;99.90;;;;;;5032737;28;20213;-55
2021/05/27 06:02:58;;;;;;;1999.90;999.90;;;9.90;99.90;;;;;;5032766;28;20245;-44
2021/05/27 06:05:25;;;;;;;1999.90;999.90;;;10.10;99.90;;;;;;5029465;28;20608;-43
2021/05/27 06:07:53;;;;;;;1999.90;999.90;;;10.40;99.90;;;;;;5032475;28;20261;-45
2021/05/27 06:10:20;;;;;;;1999.90;999.90;;;10.80;99.90;;;;;;5030533;28;20176;-50
2021/05/27 06:12:50;;;;;;;1999.90;999.90;;;10.90;99.90;;;;;;5031960;28;20178;-44
2021/05/27 06:15:21;;;;;;;1999.90;999.90;;;11.00;99.90;;;;;;5031682;28;20169;-43
2021/05/27 06:17:49;;;;;;;1999.90;999.90;;;11.10;99.90;;;;;;5031707;28;20162;-46
2021/05/27 06:20:16;;;;;;;1999.90;999.90;;;11.70;99.90;;;;;;5032056;28;20252;-44
2021/05/27 06:22:43;;;;;;;1999.90;999.90;;;12.00;99.90;;;;;;5031323;28;20174;-45
2021/05/27 06:25:11;;;;;;;1999.90;999.90;;;11.90;99.90;;;;;;5031864;28;20170;-49
2021/05/27 06:27:38;;;;;;;1999.90;999.90;;;11.80;99.90;;;;;;5031890;28;20193;-45
2021/05/27 06:30:05;;;;;;;1999.90;999.90;;;11.70;99.90;;;;;;5031076;28;20221;-45
2021/05/27 06:32:37;;;;;;;1999.90;999.90;;;11.60;99.90;;;;;;5031277;28;20281;-44
2021/05/27 06:35:05;;;;;;;1999.90;999.90;;;11.50;99.90;;;;;;5046636;28;20173;-53
2021/05/27 06:37:36;;;;;;;1999.90;999.90;;;11.60;99.90;;;;;;5050879;28;20169;-50
2021/05/27 06:40:05;;;;;;;1999.90;999.90;;;12.10;99.90;;;;;;5051374;28;20292;-47
2021/05/27 06:42:32;;;;;;;1999.90;999.90;;;12.40;99.90;;;;;;5051860;28;20268;-46
2021/05/27 06:44:59;;;;;;;1999.90;999.90;;;12.40;99.90;;;;;;5050673;28;20544;-45
2021/05/27 06:47:26;;;;;;;1999.90;999.90;;;12.80;99.90;;;;;;5051593;28;20176;-47
2021/05/27 06:49:53;;;;;;;1999.90;999.90;;;12.90;99.90;;;;;;5051381;28;20260;-46
2021/05/27 06:52:20;;;;;;;1999.90;999.90;;;12.60;99.90;;;;;;5050399;28;20177;-46
2021/05/27 06:54:46;;;;;;;1999.90;999.90;;;12.40;99.90;;;;;;5051539;28;20166;-45
2021/05/27 06:57:14;;;;;;;1999.90;999.90;;;12.20;99.90;;;;;;5051541;28;20276;-46
2021/05/27 06:59:41;;;;;;;1999.90;999.90;;;12.10;99.90;;;;;;5050640;28;20205;-47
2021/05/27 07:02:08;;;;;;;1999.90;999.90;;;12.10;99.90;;;;;;5050972;28;20624;-46
2021/05/27 07:04:34;;;;;;;1999.90;999.90;;;12.20;99.90;;;;;;5051133;28;20219;-46
2021/05/27 07:07:01;;;;;;;1999.90;999.90;;;12.20;99.90;;;;;;5050566;28;20170;-47
2021/05/27 07:09:28;;;;;;;1999.90;999.90;;;12.20;99.90;;;;;;5051097;28;20238;-44
2021/05/27 07:11:55;;;;;;;1999.90;999.90;;;12.30;99.90;;;;;;5051262;28;20541;-45
2021/05/27 07:14:22;;;;;;;1999.90;999.90;;;12.40;99.90;;;;;;5050840;28;20250;-47
2021/05/27 07:16:49;;;;;;;1999.90;999.90;;;12.50;99.90;;;;;;5051063;28;20650;-49
2021/05/27 07:19:16;;;;;;;1999.90;999.90;;;12.80;99.90;;;;;;5051262;28;20647;-48
2021/05/27 07:21:44;;;;;;;1999.90;999.90;;;12.80;99.90;;;;;;5050475;28;20177;-47
2021/05/27 07:24:10;;;;;;;1999.90;999.90;;;12.80;99.90;;;;;;5055110;28;20674;-49
2021/05/27 07:26:37;;;;;;;1999.90;999.90;;;12.90;99.90;;;;;;5054665;28;20240;-47
2021/05/27 07:29:04;;;;;;;1999.90;999.90;;;13.10;99.90;;;;;;5054186;28;20220;-63
2021/05/27 07:31:32;;;;;;;1999.90;999.90;;;13.20;99.90;;;;;;5054880;28;20205;-59
2021/05/27 07:34:00;;;;;;;1999.90;999.90;;;14.00;99.90;;;;;;5054434;28;20203;-43
2021/05/27 07:36:27;;;;;;;1999.90;999.90;;;14.90;99.90;;;;;;5054751;28;20268;-52
2021/05/27 07:38:54;;;;;;;1999.90;999.90;;;15.40;99.90;;;;;;5054735;28;20251;-49
2021/05/27 07:41:20;;;;;;;1999.90;999.90;;;15.60;99.90;;;;;;5053716;28;20698;-42
2021/05/27 07:43:47;;;;;;;1999.90;999.90;;;15.20;99.90;;;;;;5054123;28;20282;-48
2021/05/27 07:46:14;;;;;;;1999.90;999.90;;;15.30;99.90;;;;;;5054746;28;20165;-56
2021/05/27 07:48:40;;;;;;;1999.90;999.90;;;15.00;99.90;;;;;;5053902;28;20168;-46
2021/05/27 07:51:07;;;;;;;1999.90;999.90;;;14.80;99.90;;;;;;5054137;28;20176;-52
2021/05/27 07:53:34;;;;;;;1999.90;999.90;;;14.70;99.90;;;;;;5054485;28;20592;-49
2021/05/27 07:56:01;;;;;;;1999.90;999.90;;;14.60;99.90;;;;;;5053567;28;20177;-51
2021/05/27 07:58:27;;;;;;;1999.90;999.90;;;14.60;99.90;;;;;;5054333;28;20174;-52
2021/05/27 08:00:54;;;;;;;1999.90;999.90;;;14.80;99.90;;;;;;5054427;28;20303;-50
2021/05/27 08:03:21;;;;;;;1999.90;999.90;;;14.90;99.90;;;;;;5053239;28;20207;-56
2021/05/27 08:05:48;;;;;;;1999.90;999.90;;;15.00;99.90;;;;;;5053819;28;20184;-54
2021/05/27 08:08:14;;;;;;;1999.90;999.90;;;15.00;99.90;;;;;;5054137;28;20609;-57
2021/05/27 08:10:41;;;;;;;1999.90;999.90;;;15.10;99.90;;;;;;5052784;28;20191;-47
2021/05/27 08:13:08;;;;;;;1999.90;999.90;;;15.00;99.90;;;;;;5053565;28;20161;-55
2021/05/27 08:15:35;;;;;;;1999.90;999.90;;;15.00;99.90;;;;;;5054051;28;20169;-55
2021/05/27 08:18:01;;;;;;;1999.90;999.90;;;14.90;99.90;;;;;;5053803;28;20649;-51
2021/05/27 08:20:28;;;;;;;1999.90;999.90;;;14.90;99.90;;;;;;5053687;28;20387;-46
2021/05/27 08:22:55;;;;;;;1999.90;999.90;;;15.10;99.90;;;;;;5053898;28;20212;-56
2021/05/27 08:25:22;;;;;;;1999.90;999.90;;;15.20;99.90;;;;;;5053194;28;20215;-55
2021/05/27 08:27:49;;;;;;;1999.90;999.90;;;15.50;99.90;;;;;;5053523;28;20247;-52
2021/05/27 08:30:17;;;;;;;1999.90;999.90;;;15.60;99.90;;;;;;5053591;28;20221;-50
2021/05/27 08:32:44;;;;;;;1999.90;999.90;;;15.70;99.90;;;;;;5052853;28;20169;-57
2021/05/27 08:35:11;;;;;;;1999.90;999.90;;;15.90;99.90;;;;;;5053584;28;20181;-55
2021/05/27 08:37:38;;;;;;;1999.90;999.90;;;15.90;99.90;;;;;;5053561;28;20169;-53
2021/05/27 08:40:05;;;;;;;1999.90;999.90;;;16.10;99.90;;;;;;5052581;28;20224;-47
2021/05/27 08:42:33;;;;;;;1999.90;999.90;;;16.40;99.90;;;;;;5053399;28;20162;-48
2021/05/27 08:45:02;;;;;;;1999.90;999.90;;;16.60;99.90;;;;;;5053212;28;20272;-50
2021/05/27 08:47:28;;;;;;;1999.90;999.90;;;16.70;99.90;;;;;;5053099;28;20193;-48
2021/05/27 08:49:57;;;;;;;1999.90;999.90;;;16.70;99.90;;;;;;5053389;28;20666;-49
2021/05/27 08:52:24;;;;;;;1999.90;999.90;;;16.70;99.90;;;;;;5052509;28;20256;-60
2021/05/27 08:54:50;;;;;;;1999.90;999.90;;;17.10;99.90;;;;;;5052986;28;20173;-50
2021/05/27 08:57:17;;;;;;;1999.90;999.90;;;17.60;99.90;;;;;;5053539;28;20628;-49
2021/05/27 08:59:44;;;;;;;1999.90;999.90;;;17.40;99.90;;;;;;5052709;28;20315;-48
2021/05/27 09:02:12;;;;;;;1999.90;999.90;;;17.00;99.90;;;;;;5052637;28;20256;-48
2021/05/27 09:04:39;;;;;;;1999.90;999.90;;;16.80;99.90;;;;;;5052991;28;20246;-45
2021/05/27 09:07:07;;;;;;;1999.90;999.90;;;16.60;99.90;;;;;;5052270;28;20528;-48
2021/05/27 09:09:51;;;;;;;1999.90;999.90;;;17.10;99.90;;;;;;5052903;28;20173;-47
2021/05/27 09:12:35;;;;;;;1999.90;999.90;;;17.20;99.90;;;;;;5052875;28;20204;-45
2021/05/27 09:15:18;;;;;;;1999.90;999.90;;;16.80;99.90;;;;;;5051764;28;20153;-51
2021/05/27 09:17:47;;;;;;;1999.90;999.90;;;17.10;99.90;;;;;;5052782;28;20157;-55
2021/05/27 09:20:22;;;;;;;1999.90;999.90;;;17.10;99.90;;;;;;5052496;28;20255;-47
2021/05/27 09:23:07;;;;;;;1999.90;999.90;;;17.20;99.90;;;;;;5051979;28;20662;-45
2021/05/27 09:25:35;;;;;;;1999.90;999.90;;;17.20;99.90;;;;;;5052689;28;20165;-46
2021/05/27 09:28:03;;;;;;;1999.90;999.90;;;17.90;99.90;;;;;;5052149;28;20777;-46
2021/05/27 09:30:30;;;;;;;1999.90;999.90;;;18.40;99.90;;;;;;5052340;28;20251;-46
2021/05/27 09:32:57;;;;;;;1999.90;999.90;;;18.80;99.90;;;;;;5052704;28;20166;-46
2021/05/27 09:35:25;;;;;;;1999.90;999.90;;;19.00;99.90;;;;;;5051908;28;20226;-47
2021/05/27 09:37:55;;;;;;;1999.90;999.90;;;19.00;99.90;;;;;;5052016;28;20315;-47
2021/05/27 09:40:29;;;;;;;1999.90;999.90;;;19.00;99.90;;;;;;5052366;28;20193;-47
2021/05/27 09:42:58;;;;;;;1999.90;999.90;;;18.80;99.70;;;;;;5051171;28;20165;-47
2021/05/27 09:45:27;;;;;;;1999.90;999.90;;;18.50;99.90;;;;;;5051641;28;20177;-52
2021/05/27 09:47:53;;;;;;;1999.90;999.90;;;18.40;99.90;;;;;;5053229;28;20197;-48
2021/05/27 09:50:30;;;;;;;1999.90;999.90;;;18.70;99.90;;;;;;5051470;28;20539;-47
2021/05/27 09:53:17;;;;;;;1999.90;999.90;;;18.60;99.90;;;;;;5052126;28;20157;-51
2021/05/27 09:55:45;;;;;;;1999.90;999.90;;;18.70;99.80;;;;;;5052143;28;20243;-48
2021/05/27 09:58:14;;;;;;;1999.90;999.90;;;18.80;99.90;;;;;;5051593;28;20576;-47
2021/05/27 10:00:43;;;;;;;1999.90;999.90;;;18.80;99.50;;;;;;5051941;28;20538;-49
2021/05/27 10:03:25;;;;;;;1999.90;999.90;;;18.70;99.50;;;;;;5051497;28;20168;-53
2021/05/27 10:05:53;;;;;;;1999.90;999.90;;;18.90;98.40;;;;;;5051709;28;20244;-57
2021/05/27 10:08:20;;;;;;;1999.90;999.90;;;19.20;96.50;;;;;;5052353;28;20531;-59
2021/05/27 10:10:49;;;;;;;1999.90;999.90;;;19.50;95.50;;;;;;5051417;28;20196;-47
2021/05/27 10:13:21;;;;;;;1999.90;999.90;;;19.70;94.10;;;;;;5051966;28;20183;-53
2021/05/27 10:15:47;;;;;;;1999.90;999.90;;;19.80;93.90;;;;;;5052278;28;20153;-53
2021/05/27 10:18:19;;;;;;;1999.90;999.90;;;19.60;92.50;;;;;;5051676;28;20165;-55
2021/05/27 10:20:48;;;;;;;1999.90;999.90;;;19.60;93.20;;;;;;5051657;28;20653;-53
2021/05/27 10:23:16;;;;;;;1999.90;999.90;;;19.40;94.00;;;;;;5052080;28;20174;-54
2021/05/27 10:25:45;;;;;;;1999.90;999.90;;;19.30;93.60;;;;;;5051065;28;20181;-57
2021/05/27 10:28:15;;;;;;;1999.90;999.90;;;19.10;95.30;;;;;;5050614;28;20176;-55
2021/05/27 10:30:45;;;;;;;1999.90;999.90;;;19.10;94.50;;;;;;5051986;28;20238;-54
2021/05/27 10:33:19;;;;;;;1999.90;999.90;;;19.10;94.00;;;;;;5051180;28;20273;-53
2021/05/27 10:35:49;;;;;;;1999.90;999.90;;;19.10;93.80;;;;;;5052045;28;20165;-51
2021/05/27 10:38:17;;;;;;;1999.90;999.90;;;19.30;94.40;;;;;;5051943;28;20177;-53
2021/05/27 10:40:49;;;;;;;1999.90;999.90;;;19.40;94.60;;;;;;5050473;28;20339;-50
2021/05/27 10:43:16;;;;;;;1999.90;999.90;;;19.60;94.80;;;;;;5051671;28;20166;-59
2021/05/27 10:46:02;;;;;;;1999.90;999.90;;;19.70;95.90;;;;;;5051850;28;20181;-53
2021/05/27 10:48:30;;;;;;;1999.90;999.90;;;20.20;94.60;;;;;;5051473;28;20181;-54
2021/05/27 10:53:40;;;;;;;1999.90;999.90;;;20.50;92.80;;;;;;5051314;28;20651;-58
2021/05/27 10:56:17;;;;;;;1999.90;999.90;;;20.30;93.50;;;;;;5052650;28;20185;-57
2021/05/27 10:58:53;;;;;;;1999.90;999.90;;;20.40;93.50;;;;;;5055805;28;20519;-57
2021/05/27 11:01:32;;;;;;;1999.90;999.90;;;20.60;93.50;;;;;;5054513;28;20703;-52
2021/05/27 11:04:04;;;;;;;1999.90;999.90;;;20.60;92.70;;;;;;5055646;28;20223;-53
2021/05/27 11:06:35;;;;;;;1999.90;999.90;;;20.70;92.90;;;;;;5055539;28;20197;-53
2021/05/27 11:09:16;;;;;;;1999.90;999.90;;;20.70;92.10;;;;;;5054727;28;20161;-52
2021/05/27 11:12:03;;;;;;;1999.90;999.90;;;20.90;91.80;;;;;;5055453;28;20207;-54
2021/05/27 11:14:36;;;;;;;1999.90;999.90;;;21.00;91.40;;;;;;5055334;28;20623;-54
2021/05/27 11:17:06;;;;;;;1999.90;999.90;;;21.10;91.30;;;;;;5055331;28;20187;-58
2021/05/27 11:25:17;;;;;;;1999.90;999.90;;;20.60;90.60;;;;;;5054939;28;20170;-55
2021/05/27 11:27:53;;;;;;;1999.90;999.90;;;20.30;91.20;;;;;;5055457;28;20169;-59
2021/05/27 11:30:21;;;;;;;1999.90;999.90;;;20.10;91.50;;;;;;5054323;28;20574;-54
2021/05/27 11:32:49;;;;;;;1999.90;999.90;;;20.10;91.30;;;;;;5054809;28;20250;-59
2021/05/27 11:35:17;;;;;;;1999.90;999.90;;;20.10;91.50;;;;;;5055225;28;20185;-65
2021/05/27 11:37:45;;;;;;;1999.90;999.90;;;20.10;91.70;;;;;;5054384;28;20226;-58
2021/05/27 11:40:14;;;;;;;1999.90;999.90;;;20.20;91.00;;;;;;5055500;28;20209;-47
2021/05/27 11:42:49;;;;;;;1999.90;999.90;;;20.20;91.00;;;;;;5054892;28;20169;-58
2021/05/27 11:45:16;;;;;;;1999.90;999.90;;;20.10;90.60;;;;;;5054091;28;20157;-55
2021/05/27 11:47:43;;;;;;;1999.90;999.90;;;20.20;90.80;;;;;;5055112;28;20173;-39
2021/05/27 11:50:14;;;;;;;1999.90;999.90;;;20.30;90.70;;;;;;5054437;28;20615;-53
2021/05/27 11:52:41;;;;;;;1999.90;999.90;;;20.30;87.80;;;;;;5054420;28;20247;-54
2021/05/27 11:55:13;;;;;;;1999.90;999.90;;;20.10;84.90;;;;;;5054419;28;20169;-50
2021/05/27 11:57:49;;;;;;;1999.90;999.90;;;19.90;84.60;;;;;;5054600;28;20252;-48
2021/05/27 12:00:21;;;;;;;1999.90;999.90;;;19.80;84.90;;;;;;5054432;28;20212;-48
2021/05/27 12:02:50;;;;;;;1999.90;999.90;;;19.70;85.70;;;;;;5054629;28;20573;-57
2021/05/27 12:05:28;;;;;;;1999.90;999.90;;;19.70;82.20;;;;;;5054808;28;20219;-49
2021/05/27 12:08:06;;;;;;;1999.90;999.90;;;19.70;82.80;;;;;;5054622;28;20667;-51
2021/05/27 12:10:35;;;;;;;1999.90;999.90;;;19.70;79.60;;;;;;5054869;28;20689;-52
2021/05/27 12:13:04;;;;;;;1999.90;999.90;;;19.60;80.10;;;;;;5054876;28;20165;-46
2021/05/27 12:15:32;;;;;;;1999.90;999.90;;;19.50;80.90;;;;;;5054800;28;20667;-46
2021/05/27 12:17:59;;;;;;;1999.90;999.90;;;19.40;80.80;;;;;;5054935;28;20185;-48
2021/05/27 12:20:34;;;;;;;1999.90;999.90;;;19.30;82.40;;;;;;5054474;28;20216;-55
2021/05/27 12:23:12;;;;;;;1999.90;999.90;;;19.20;85.00;;;;;;5054813;28;20197;-44
2021/05/27 12:25:43;;;;;;;1999.90;999.90;;;19.20;85.30;;;;;;5054677;28;20201;-46
2021/05/27 12:28:15;;;;;;;1999.90;999.90;;;19.10;87.00;;;;;;5054308;28;20524;-51